createdAt,value
2017-09-07T00:03:05.837Z,71.60
2017-09-07T00:08:07.520Z,71.50
2017-09-07T00:13:09.456Z,71.20
2017-09-07T00:18:11.742Z,71.30
2017-09-07T00:23:13.949Z,71.10
2017-09-07T00:28:16.388Z,71.90
2017-09-07T00:33:18.192Z,72.30
2017-09-07T00:38:20.044Z,73.20
2017-09-07T00:43:22.529Z,74.30
2017-09-07T00:48:24.337Z,74.00
2017-09-07T00:53:26.215Z,75.30
2017-09-07T00:58:27.861Z,74.80
2017-09-07T01:03:29.562Z,75.00
2017-09-07T01:08:32.052Z,75.70
2017-09-07T01:13:33.728Z,76.00
2017-09-07T01:18:35.602Z,76.60
2017-09-07T01:23:39.177Z,76.10
2017-09-07T01:28:41.510Z,75.90
2017-09-07T01:33:44.672Z,76.30
2017-09-07T01:38:47.735Z,77.00
2017-09-07T01:43:50.100Z,77.00
2017-09-07T01:48:52.910Z,77.40
2017-09-07T01:53:54.516Z,77.40
2017-09-07T01:58:56.707Z,77.20
2017-09-07T02:03:58.723Z,77.80
2017-09-07T02:09:01.239Z,77.50
2017-09-07T02:14:02.887Z,78.70
2017-09-07T02:19:04.583Z,79.30
2017-09-07T02:24:06.256Z,79.20
2017-09-07T02:29:08.133Z,79.40
2017-09-07T02:34:09.747Z,78.90
2017-09-07T02:39:26.107Z,79.90
2017-09-07T02:44:42.707Z,79.50
2017-09-07T02:49:59.859Z,80.10
2017-09-07T02:55:16.453Z,80.70
2017-09-07T03:00:33.065Z,80.30
2017-09-07T03:05:50.114Z,81.00
2017-09-07T03:11:06.737Z,80.50
2017-09-07T03:16:24.403Z,80.10
2017-09-07T03:21:26.207Z,80.00
2017-09-07T03:26:27.857Z,80.00
2017-09-07T03:31:29.628Z,80.10
2017-09-07T03:36:31.530Z,79.90
2017-09-07T03:41:33.204Z,80.00
2017-09-07T03:46:34.877Z,80.10
2017-09-07T03:51:36.522Z,80.50
2017-09-07T03:56:38.611Z,80.80
2017-09-07T04:01:40.256Z,80.80
2017-09-07T04:06:41.927Z,80.90
2017-09-07T04:11:44.685Z,81.10
2017-09-07T04:16:46.526Z,81.30
2017-09-07T04:21:49.926Z,81.50
2017-09-07T04:26:54.082Z,81.80
2017-09-07T04:31:55.861Z,82.00
2017-09-07T04:36:58.324Z,81.50
2017-09-07T04:42:00.856Z,81.90
2017-09-07T04:47:02.528Z,83.00
2017-09-07T04:52:04.155Z,83.30
2017-09-07T04:57:06.302Z,83.10
2017-09-07T05:02:07.908Z,83.00
2017-09-07T05:07:09.564Z,84.00
2017-09-07T05:12:11.916Z,84.20
2017-09-07T05:17:13.587Z,84.30
2017-09-07T05:22:15.260Z,84.30
2017-09-07T05:27:16.933Z,84.10
2017-09-07T05:32:18.618Z,83.70
2017-09-07T05:37:20.725Z,83.60
2017-09-07T05:42:23.366Z,83.40
2017-09-07T05:47:25.454Z,83.40
2017-09-07T05:52:27.242Z,83.00
2017-09-07T05:57:28.916Z,83.00
2017-09-07T06:02:30.588Z,83.20
2017-09-07T06:07:32.218Z,83.20
2017-09-07T06:12:34.008Z,81.70
2017-09-07T06:17:35.679Z,81.70
2017-09-07T06:22:37.381Z,82.40
2017-09-07T06:27:39.025Z,82.30
2017-09-07T06:32:40.611Z,81.70
2017-09-07T06:37:42.268Z,82.30
2017-09-07T06:42:43.836Z,82.60
2017-09-07T06:47:45.425Z,82.90
2017-09-07T06:52:47.024Z,83.00
2017-09-07T06:57:48.577Z,82.30
2017-09-07T07:02:50.173Z,81.60
2017-09-07T07:07:51.729Z,81.60
2017-09-07T07:12:53.357Z,80.60
2017-09-07T07:17:54.911Z,79.50
2017-09-07T07:22:56.503Z,80.00
2017-09-07T07:27:58.077Z,77.50
2017-09-07T07:32:59.641Z,75.90
2017-09-07T07:38:01.184Z,75.10
2017-09-07T07:43:02.779Z,75.70
2017-09-07T07:48:04.337Z,72.40
2017-09-07T07:53:05.909Z,71.20
2017-09-07T07:58:07.473Z,70.10
2017-09-07T08:03:09.045Z,69.90
2017-09-07T08:08:10.612Z,69.00
2017-09-07T08:13:12.176Z,67.10
2017-09-07T08:18:13.736Z,64.40
2017-09-07T08:23:15.291Z,64.20
2017-09-07T08:28:16.893Z,63.00
2017-09-07T08:33:18.484Z,60.80
2017-09-07T08:38:19.988Z,59.30
2017-09-07T08:43:21.542Z,55.30
2017-09-07T08:48:23.105Z,52.40
2017-09-07T08:53:24.672Z,50.30
2017-09-07T08:58:26.237Z,53.30
2017-09-07T09:03:27.812Z,51.80
2017-09-07T09:08:29.375Z,49.70
2017-09-07T09:13:30.918Z,49.40
2017-09-07T09:18:32.490Z,48.50
2017-09-07T09:23:34.103Z,48.40
2017-09-07T09:28:35.667Z,49.60
2017-09-07T09:33:37.227Z,49.90
2017-09-07T09:38:38.783Z,48.90
2017-09-07T09:43:40.344Z,43.50
2017-09-07T09:48:41.900Z,41.50
2017-09-07T09:53:43.456Z,47.90
2017-09-07T09:58:45.017Z,41.50
2017-09-07T10:03:46.580Z,38.20
2017-09-07T10:08:48.165Z,41.80
2017-09-07T10:13:49.724Z,45.70
2017-09-07T10:18:51.288Z,47.90
2017-09-07T10:23:52.858Z,48.00
2017-09-07T10:28:54.412Z,45.40
2017-09-07T10:33:55.968Z,44.90
2017-09-07T10:38:57.529Z,46.70
2017-09-07T10:43:59.124Z,48.30
2017-09-07T10:49:00.679Z,49.20
2017-09-07T10:54:02.273Z,50.40
2017-09-07T10:59:03.854Z,50.10
2017-09-07T11:04:05.424Z,50.90
2017-09-07T11:09:06.977Z,49.50
2017-09-07T11:14:08.544Z,50.10
2017-09-07T11:19:10.104Z,50.30
2017-09-07T11:24:11.671Z,49.50
2017-09-07T11:29:13.244Z,50.00
2017-09-07T11:34:14.809Z,49.80
2017-09-07T11:39:16.401Z,51.80
2017-09-07T11:44:17.969Z,52.40
2017-09-07T11:49:19.542Z,51.10
2017-09-07T11:54:21.112Z,50.40
2017-09-07T11:59:22.681Z,50.50
2017-09-07T12:04:24.248Z,49.40
2017-09-07T12:09:25.820Z,49.60
2017-09-07T12:14:27.379Z,49.10
2017-09-07T12:19:28.940Z,49.70
2017-09-07T12:24:30.519Z,48.30
2017-09-07T12:29:32.087Z,49.70
2017-09-07T12:34:33.648Z,49.10
2017-09-07T12:39:35.201Z,48.30
2017-09-07T12:44:36.774Z,43.20
2017-09-07T12:49:38.292Z,46.90
2017-09-07T12:54:39.847Z,41.40
2017-09-07T12:59:41.509Z,40.70
2017-09-07T13:04:43.105Z,41.40
2017-09-07T13:09:44.688Z,44.10
2017-09-07T13:14:46.283Z,45.30
2017-09-07T13:19:47.836Z,47.00
2017-09-07T13:24:49.401Z,45.20
2017-09-07T13:29:50.965Z,47.00
2017-09-07T13:34:52.568Z,47.10
2017-09-07T13:39:54.125Z,46.70
2017-09-07T13:44:55.680Z,47.00
2017-09-07T13:50:32.771Z,46.60
2017-09-07T13:55:34.445Z,45.20
2017-09-07T14:00:36.117Z,44.20
2017-09-07T14:05:37.672Z,42.80
2017-09-07T14:10:39.238Z,43.80
2017-09-07T14:15:40.800Z,43.30
2017-09-07T14:20:42.361Z,43.60
2017-09-07T14:25:43.944Z,45.80
2017-09-07T14:30:45.516Z,45.50
2017-09-07T14:35:47.080Z,43.90
2017-09-07T14:40:48.652Z,43.10
2017-09-07T14:45:50.237Z,43.20
2017-09-07T14:50:51.885Z,44.00
2017-09-07T14:55:53.459Z,43.90
2017-09-07T15:00:55.039Z,44.40
2017-09-07T15:05:56.616Z,44.50
2017-09-07T15:10:58.189Z,43.00
2017-09-07T15:15:59.769Z,44.70
2017-09-07T15:21:01.333Z,45.20
2017-09-07T15:26:04.144Z,47.00
2017-09-07T15:31:05.817Z,46.00
2017-09-07T15:36:07.490Z,45.10
2017-09-07T15:41:09.104Z,45.80
2017-09-07T15:46:10.834Z,46.50
2017-09-07T15:51:13.709Z,46.70
2017-09-07T15:56:17.252Z,46.00
2017-09-07T16:01:18.869Z,46.00
2017-09-07T16:06:21.212Z,46.30
2017-09-07T16:11:22.861Z,47.40
2017-09-07T16:16:24.736Z,48.80
2017-09-07T16:21:26.434Z,49.20
2017-09-07T16:26:28.081Z,50.30
2017-09-07T16:31:30.803Z,50.60
2017-09-07T16:36:34.525Z,51.70
2017-09-07T16:41:36.788Z,51.70
2017-09-07T16:46:39.464Z,51.40
2017-09-07T16:51:41.129Z,51.60
2017-09-07T16:56:42.905Z,51.70
2017-09-07T17:01:44.795Z,52.30
2017-09-07T17:06:46.780Z,52.80
2017-09-07T17:11:48.424Z,52.90
2017-09-07T17:16:50.092Z,53.00
2017-09-07T17:21:51.769Z,53.80
2017-09-07T17:26:53.434Z,53.80
2017-09-07T17:31:56.140Z,53.80
2017-09-07T17:36:59.644Z,53.80
2017-09-07T17:42:02.209Z,53.80
2017-09-07T17:47:03.924Z,54.00
2017-09-07T17:52:05.593Z,54.20
2017-09-07T17:57:07.264Z,54.50
2017-09-07T18:02:08.960Z,54.80
2017-09-07T18:07:11.632Z,55.80
2017-09-07T18:12:13.362Z,54.40
2017-09-07T18:17:14.985Z,54.40
2017-09-07T18:22:16.669Z,53.70
2017-09-07T18:27:18.336Z,54.00
2017-09-07T18:32:20.049Z,53.70
2017-09-07T18:37:22.872Z,54.20
2017-09-07T18:42:26.894Z,55.00
2017-09-07T18:47:28.509Z,55.00
2017-09-07T18:52:30.189Z,55.20
2017-09-07T18:57:32.877Z,55.40
2017-09-07T19:02:34.569Z,55.90
2017-09-07T19:07:36.212Z,56.00
2017-09-07T19:12:37.893Z,56.60
2017-09-07T19:17:39.629Z,56.40
2017-09-07T19:22:41.295Z,56.80
2017-09-07T19:27:42.944Z,56.80
2017-09-07T19:32:45.052Z,57.60
2017-09-07T19:37:46.666Z,57.30
2017-09-07T19:42:48.540Z,57.40
2017-09-07T19:47:50.345Z,58.10
2017-09-07T19:52:52.041Z,57.80
2017-09-07T19:57:53.700Z,57.60
2017-09-07T20:02:55.346Z,58.10
2017-09-07T20:07:57.057Z,57.60
2017-09-07T20:12:58.672Z,57.50
2017-09-07T20:18:00.344Z,58.00
2017-09-07T20:23:01.921Z,58.60
2017-09-07T20:28:03.605Z,58.70
2017-09-07T20:33:05.270Z,59.80
2017-09-07T20:38:06.954Z,60.80
2017-09-07T20:43:08.611Z,61.00
2017-09-07T20:48:10.292Z,60.60
2017-09-07T20:53:11.972Z,59.40
2017-09-07T20:58:13.628Z,59.30
2017-09-07T21:03:15.308Z,58.90
2017-09-07T21:08:16.980Z,59.10
2017-09-07T21:13:18.656Z,59.40
2017-09-07T21:18:20.312Z,59.40
2017-09-07T21:23:22.050Z,59.60
2017-09-07T21:28:23.662Z,59.50
2017-09-07T21:33:25.376Z,59.70
2017-09-07T21:38:27.029Z,59.60
2017-09-07T21:43:28.699Z,60.00
2017-09-07T21:48:30.403Z,60.20
2017-09-07T21:53:32.031Z,60.40
2017-09-07T21:58:33.676Z,59.80
2017-09-07T22:03:35.380Z,60.20
2017-09-07T22:08:37.050Z,60.10
2017-09-07T22:13:38.748Z,60.40
2017-09-07T22:18:40.329Z,60.60
2017-09-07T22:23:42.065Z,60.60
2017-09-07T22:28:43.853Z,61.50
2017-09-07T22:33:45.628Z,62.00
2017-09-07T22:38:47.280Z,62.20
2017-09-07T22:43:48.965Z,62.60
2017-09-07T22:48:50.665Z,62.50
2017-09-07T22:53:52.317Z,62.20
2017-09-07T22:58:53.977Z,62.00
2017-09-07T23:03:56.257Z,61.90
2017-09-07T23:08:57.932Z,62.20
2017-09-07T23:13:59.620Z,62.40
2017-09-07T23:19:02.315Z,62.20
2017-09-07T23:24:04.032Z,62.50
2017-09-07T23:29:06.680Z,63.20
2017-09-07T23:34:08.353Z,63.20
2017-09-07T23:39:10.028Z,63.40
2017-09-07T23:44:11.692Z,62.80
2017-09-07T23:49:13.372Z,62.70
2017-09-07T23:54:15.049Z,62.60
2017-09-07T23:59:16.718Z,62.80
